Time;durP1;ratioP1;P1;durP2;ratioP2;P2;SDS_P1;SDS_P2;PMS_P1;PMS_P2;Temp;Humidity;BMP_temperature;BMP_pressure;BME280_temperature;BME280_humidity;BME280_pressure;Samples;Min_cycle;Max_cycle;Signal;HPM_P1;HPM_P2
2021/09/09 00:02:41;;;;;;;;;;;;;;;;;;5047817;28;19920;-83
2021/09/09 00:05:25;;;;;;;;;;;;;;;;;;5041331;28;19920;-82
2021/09/09 00:08:10;;;;;;;;;;;;;;;;;;5042018;28;19920;-83
2021/09/09 00:10:56;;;;;;;;;;;;;;;;;;5046736;28;19921;-81
2021/09/09 00:13:45;;;;;;;;;;;;;;;;;;5036127;28;19920;-82
2021/09/09 00:16:30;;;;;;;;;;;;;;;;;;5042694;28;19932;-82
2021/09/09 00:19:17;;;;;;;;;;;;;;;;;;5051697;28;19928;-82
2021/09/09 00:22:01;;;;;;;;;;;;;;;;;;5043980;28;19932;-83
2021/09/09 00:24:47;;;;;;;;;;;;;;;;;;5040591;28;19920;-82
2021/09/09 00:27:32;;;;;;;;;;;;;;;;;;5053620;28;19928;-82
2021/09/09 00:30:17;;;;;;;;;;;;;;;;;;5040241;28;19924;-82
2021/09/09 00:33:02;;;;;;;;;;;;;;;;;;5044480;28;19920;-82
2021/09/09 00:35:48;;;;;;;;;;;;;;;;;;5038707;28;20444;-82
2021/09/09 00:38:33;;;;;;;;;;;;;;;;;;5045836;28;20301;-82
2021/09/09 00:41:17;;;;;;;;;;;;;;;;;;5043218;28;19928;-82
2021/09/09 00:44:01;;;;;;;;;;;;;;;;;;5046427;28;19996;-82
2021/09/09 00:46:46;;;;;;;;;;;;;;;;;;5040781;28;19924;-82
2021/09/09 00:49:30;;;;;;;;;;;;;;;;;;5039279;28;19920;-83
2021/09/09 00:52:15;;;;;;;;;;;;;;;;;;5044041;28;19920;-82
2021/09/09 00:55:00;;;;;;;;;;;;;;;;;;5049272;28;20396;-82
2021/09/09 00:57:44;;;;;;;;;;;;;;;;;;5043850;28;19921;-82
2021/09/09 01:00:29;;;;;;;;;;;;;;;;;;5040661;28;19924;-82
2021/09/09 01:03:13;;;;;;;;;;;;;;;;;;5046087;28;19920;-81
2021/09/09 01:05:57;;;;;;;;;;;;;;;;;;5046833;28;19992;-82
2021/09/09 01:08:41;;;;;;;;;;;;;;;;;;5049687;28;19928;-82
2021/09/09 01:11:26;;;;;;;;;;;;;;;;;;5041471;28;19921;-82
2021/09/09 01:14:10;;;;;;;;;;;;;;;;;;5049871;28;19940;-82
2021/09/09 01:16:55;;;;;;;;;;;;;;;;;;5047357;28;19924;-82
2021/09/09 01:19:40;;;;;;;;;;;;;;;;;;5049441;28;20095;-83
2021/09/09 01:22:25;;;;;;;;;;;;;;;;;;5046489;28;19924;-83
2021/09/09 01:25:10;;;;;;;;;;;;;;;;;;5045672;28;19924;-84
2021/09/09 01:27:54;;;;;;;;;;;;;;;;;;5048889;28;19928;-83
2021/09/09 01:30:38;;;;;;;;;;;;;;;;;;5045682;28;19920;-84
2021/09/09 01:33:22;;;;;;;;;;;;;;;;;;5047576;28;19920;-83
2021/09/09 01:36:07;;;;;;;;;;;;;;;;;;5048002;28;19928;-84
2021/09/09 01:38:51;;;;;;;;;;;;;;;;;;5047416;28;19924;-83
2021/09/09 01:41:35;;;;;;;;;;;;;;;;;;5048749;28;19936;-84
2021/09/09 01:44:19;;;;;;;;;;;;;;;;;;5050318;28;19924;-84
2021/09/09 01:47:04;;;;;;;;;;;;;;;;;;5046995;28;21060;-84
2021/09/09 01:49:50;;;;;;;;;;;;;;;;;;5048291;28;19919;-84
2021/09/09 01:52:35;;;;;;;;;;;;;;;;;;5049533;28;20425;-84
2021/09/09 01:55:20;;;;;;;;;;;;;;;;;;5043205;28;19928;-83
2021/09/09 01:58:04;;;;;;;;;;;;;;;;;;5042177;28;19928;-83
2021/09/09 02:00:48;;;;;;;;;;;;;;;;;;5037797;28;20392;-82
2021/09/09 02:03:33;;;;;;;;;;;;;;;;;;5044049;28;19920;-83
2021/09/09 02:06:18;;;;;;;;;;;;;;;;;;5039647;28;19988;-83
2021/09/09 02:09:02;;;;;;;;;;;;;;;;;;5042869;28;20309;-84
2021/09/09 02:11:47;;;;;;;;;;;;;;;;;;5040706;28;19920;-82
2021/09/09 02:14:31;;;;;;;;;;;;;;;;;;5039859;28;19920;-83
2021/09/09 02:17:15;;;;;;;;;;;;;;;;;;5037115;28;19939;-82
2021/09/09 02:20:00;;;;;;;;;;;;;;;;;;5039244;28;19920;-82
2021/09/09 02:22:45;;;;;;;;;;;;;;;;;;5050731;28;19927;-83
2021/09/09 02:25:29;;;;;;;;;;;;;;;;;;5045982;28;19920;-83
2021/09/09 02:28:13;;;;;;;;;;;;;;;;;;5041712;28;19920;-83
2021/09/09 02:30:57;;;;;;;;;;;;;;;;;;5039095;28;19928;-83
2021/09/09 02:33:42;;;;;;;;;;;;;;;;;;5044241;28;19920;-83
2021/09/09 02:36:26;;;;;;;;;;;;;;;;;;5037810;28;19924;-84
2021/09/09 02:39:10;;;;;;;;;;;;;;;;;;5042948;28;19920;-83
2021/09/09 02:41:54;;;;;;;;;;;;;;;;;;5041437;28;19920;-81
2021/09/09 02:44:39;;;;;;;;;;;;;;;;;;5049157;28;19920;-82
2021/09/09 02:47:23;;;;;;;;;;;;;;;;;;5047844;28;19928;-82
2021/09/09 02:50:07;;;;;;;;;;;;;;;;;;5043101;28;19940;-82
2021/09/09 02:52:52;;;;;;;;;;;;;;;;;;5039570;28;19924;-82
2021/09/09 02:55:36;;;;;;;;;;;;;;;;;;5044167;28;19924;-82
2021/09/09 02:58:20;;;;;;;;;;;;;;;;;;5041429;28;19919;-82
2021/09/09 03:01:05;;;;;;;;;;;;;;;;;;5043383;28;19932;-84
2021/09/09 03:03:49;;;;;;;;;;;;;;;;;;5051052;28;20401;-84
2021/09/09 03:06:33;;;;;;;;;;;;;;;;;;5047441;28;19928;-83
2021/09/09 03:09:17;;;;;;;;;;;;;;;;;;5044544;28;19924;-85
2021/09/09 03:12:02;;;;;;;;;;;;;;;;;;5045827;28;19924;-83
2021/09/09 03:14:47;;;;;;;;;;;;;;;;;;5050584;28;19944;-83
2021/09/09 03:17:31;;;;;;;;;;;;;;;;;;5043034;28;20301;-82
2021/09/09 03:20:15;;;;;;;;;;;;;;;;;;5046108;28;20019;-84
2021/09/09 03:22:59;;;;;;;;;;;;;;;;;;5038994;28;19924;-82
2021/09/09 03:25:44;;;;;;;;;;;;;;;;;;5043880;28;19920;-83
2021/09/09 03:28:28;;;;;;;;;;;;;;;;;;5029209;28;20286;-83
2021/09/09 03:31:12;;;;;;;;;;;;;;;;;;5047665;28;19928;-84
2021/09/09 03:33:57;;;;;;;;;;;;;;;;;;5039902;28;19925;-82
2021/09/09 03:36:42;;;;;;;;;;;;;;;;;;5045795;28;19936;-83
2021/09/09 03:39:27;;;;;;;;;;;;;;;;;;5042264;28;19921;-83
2021/09/09 03:42:11;;;;;;;;;;;;;;;;;;5040774;28;19925;-83
2021/09/09 03:44:56;;;;;;;;;;;;;;;;;;5042896;28;19924;-83
2021/09/09 03:47:40;;;;;;;;;;;;;;;;;;5042932;28;19920;-82
2021/09/09 03:50:24;;;;;;;;;;;;;;;;;;5045765;28;21212;-83
2021/09/09 03:53:09;;;;;;;;;;;;;;;;;;5049131;28;19920;-82
2021/09/09 03:55:53;;;;;;;;;;;;;;;;;;5040469;28;19924;-80
2021/09/09 03:58:37;;;;;;;;;;;;;;;;;;5053006;28;20020;-81
2021/09/09 04:01:21;;;;;;;;;;;;;;;;;;5045667;28;19920;-83
2021/09/09 04:04:06;;;;;;;;;;;;;;;;;;5046690;28;19920;-81
2021/09/09 04:06:51;;;;;;;;;;;;;;;;;;5041552;28;19924;-81
2021/09/09 04:09:36;;;;;;;;;;;;;;;;;;5043330;28;19928;-80
2021/09/09 04:12:21;;;;;;;;;;;;;;;;;;5043038;28;19940;-81
2021/09/09 04:15:05;;;;;;;;;;;;;;;;;;5057725;28;19928;-82
2021/09/09 04:17:49;;;;;;;;;;;;;;;;;;5042062;28;19924;-81
2021/09/09 04:20:34;;;;;;;;;;;;;;;;;;5042445;28;19920;-80
2021/09/09 04:23:18;;;;;;;;;;;;;;;;;;5042519;28;19920;-82
2021/09/09 04:26:02;;;;;;;;;;;;;;;;;;5046881;28;19920;-81
2021/09/09 04:28:47;;;;;;;;;;;;;;;;;;5037260;28;19928;-81
2021/09/09 04:31:31;;;;;;;;;;;;;;;;;;5040762;28;19924;-82
2021/09/09 04:34:15;;;;;;;;;;;;;;;;;;5041237;28;19928;-84
2021/09/09 04:37:00;;;;;;;;;;;;;;;;;;5046687;28;19928;-82
2021/09/09 04:39:44;;;;;;;;;;;;;;;;;;5045672;28;19924;-84
2021/09/09 04:42:28;;;;;;;;;;;;;;;;;;5041319;28;19924;-83
2021/09/09 04:45:12;;;;;;;;;;;;;;;;;;5044086;28;19919;-82
2021/09/09 04:47:57;;;;;;;;;;;;;;;;;;5041917;28;19920;-83
2021/09/09 04:50:41;;;;;;;;;;;;;;;;;;5041530;28;19920;-83
2021/09/09 04:53:25;;;;;;;;;;;;;;;;;;5041874;28;19928;-81
2021/09/09 04:56:09;;;;;;;;;;;;;;;;;;5039601;28;20420;-81
2021/09/09 04:58:53;;;;;;;;;;;;;;;;;;5040305;28;19921;-84
2021/09/09 05:01:38;;;;;;;;;;;;;;;;;;5040277;28;19936;-82
2021/09/09 05:04:22;;;;;;;;;;;;;;;;;;5045703;28;19920;-84
2021/09/09 05:07:07;;;;;;;;;;;;;;;;;;5039860;28;19920;-82
2021/09/09 05:09:51;;;;;;;;;;;;;;;;;;5034607;28;19924;-83
2021/09/09 05:12:35;;;;;;;;;;;;;;;;;;5033442;28;19936;-81
2021/09/09 05:15:19;;;;;;;;;;;;;;;;;;5029419;28;19948;-81
2021/09/09 05:18:04;;;;;;;;;;;;;;;;;;5040029;28;19924;-80
2021/09/09 05:20:48;;;;;;;;;;;;;;;;;;5034599;28;19924;-81
2021/09/09 05:23:32;;;;;;;;;;;;;;;;;;5029204;28;20396;-80
2021/09/09 05:26:16;;;;;;;;;;;;;;;;;;5045314;28;20305;-83
2021/09/09 05:29:00;;;;;;;;;;;;;;;;;;5034934;28;19921;-85
2021/09/09 05:31:44;;;;;;;;;;;;;;;;;;5036680;28;19920;-83
2021/09/09 05:34:29;;;;;;;;;;;;;;;;;;5033296;28;19920;-83
2021/09/09 05:37:15;;;;;;;;;;;;;;;;;;5054751;28;19924;-85
2021/09/09 05:39:59;;;;;;;;;;;;;;;;;;5046811;28;19937;-85
2021/09/09 05:42:43;;;;;;;;;;;;;;;;;;5047211;28;19924;-85
2021/09/09 05:45:27;;;;;;;;;;;;;;;;;;5047609;28;19956;-85
2021/09/09 05:48:12;;;;;;;;;;;;;;;;;;5049705;28;19935;-85
2021/09/09 05:50:56;;;;;;;;;;;;;;;;;;5048126;28;19920;-85
2021/09/09 05:53:41;;;;;;;;;;;;;;;;;;5049484;28;19920;-85
2021/09/09 05:56:25;;;;;;;;;;;;;;;;;;5053168;28;19940;-84
2021/09/09 05:59:10;;;;;;;;;;;;;;;;;;5048319;28;19916;-85
2021/09/09 06:01:54;;;;;;;;;;;;;;;;;;5044833;28;19921;-84
2021/09/09 06:04:38;;;;;;;;;;;;;;;;;;5054811;28;19924;-83
2021/09/09 06:07:22;;;;;;;;;;;;;;;;;;5053093;28;19920;-83
2021/09/09 06:10:07;;;;;;;;;;;;;;;;;;5051625;28;19924;-84
2021/09/09 06:12:51;;;;;;;;;;;;;;;;;;5055465;28;19920;-83
2021/09/09 06:15:35;;;;;;;;;;;;;;;;;;5052141;28;19927;-81
2021/09/09 06:18:20;;;;;;;;;;;;;;;;;;5048431;28;19920;-81
2021/09/09 06:21:04;;;;;;;;;;;;;;;;;;5048158;28;19920;-81
2021/09/09 06:23:48;;;;;;;;;;;;;;;;;;5043511;28;20716;-80
2021/09/09 06:26:32;;;;;;;;;;;;;;;;;;5033744;28;19924;-83
2021/09/09 06:29:17;;;;;;;;;;;;;;;;;;5041437;28;19924;-84
2021/09/09 06:32:01;;;;;;;;;;;;;;;;;;5048326;28;19920;-80
2021/09/09 06:34:45;;;;;;;;;;;;;;;;;;5047074;28;19932;-81
2021/09/09 06:37:30;;;;;;;;;;;;;;;;;;5047141;28;19924;-81
2021/09/09 06:40:14;;;;;;;;;;;;;;;;;;5043118;28;19920;-80
2021/09/09 06:42:58;;;;;;;;;;;;;;;;;;5045764;28;20396;-80
2021/09/09 06:45:43;;;;;;;;;;;;;;;;;;5045219;28;20325;-81
2021/09/09 06:48:27;;;;;;;;;;;;;;;;;;5039656;28;20363;-82
2021/09/09 06:51:12;;;;;;;;;;;;;;;;;;5044653;28;19924;-79
2021/09/09 06:53:56;;;;;;;;;;;;;;;;;;5043507;28;19921;-80
2021/09/09 06:56:41;;;;;;;;;;;;;;;;;;5040811;28;19924;-80
2021/09/09 06:59:27;;;;;;;;;;;;;;;;;;5045256;28;20292;-79
2021/09/09 07:02:11;;;;;;;;;;;;;;;;;;5036665;28;19920;-80
2021/09/09 07:04:55;;;;;;;;;;;;;;;;;;5043699;28;19920;-80
2021/09/09 07:07:39;;;;;;;;;;;;;;;;;;5046170;28;19921;-81
2021/09/09 07:10:24;;;;;;;;;;;;;;;;;;5037148;28;19932;-79
2021/09/09 07:13:09;;;;;;;;;;;;;;;;;;5032541;28;20404;-79
2021/09/09 07:15:53;;;;;;;;;;;;;;;;;;5038328;28;19932;-79
2021/09/09 07:18:37;;;;;;;;;;;;;;;;;;5035391;28;19919;-80
2021/09/09 07:21:22;;;;;;;;;;;;;;;;;;5035401;28;19924;-80
2021/09/09 07:24:06;;;;;;;;;;;;;;;;;;5033859;28;19928;-79
2021/09/09 07:26:50;;;;;;;;;;;;;;;;;;5036367;28;19920;-79
2021/09/09 07:29:34;;;;;;;;;;;;;;;;;;5033278;28;19928;-78
2021/09/09 07:32:19;;;;;;;;;;;;;;;;;;5031718;28;19920;-79
2021/09/09 07:35:03;;;;;;;;;;;;;;;;;;5033406;28;20408;-78
2021/09/09 07:37:47;;;;;;;;;;;;;;;;;;5042407;28;19984;-78
2021/09/09 07:40:31;;;;;;;;;;;;;;;;;;5026120;28;19940;-78
2021/09/09 07:43:16;;;;;;;;;;;;;;;;;;5035714;28;19920;-77
2021/09/09 07:46:00;;;;;;;;;;;;;;;;;;5034136;28;19920;-78
2021/09/09 07:48:45;;;;;;;;;;;;;;;;;;5031781;28;19921;-78
2021/09/09 07:51:29;;;;;;;;;;;;;;;;;;5031039;28;19928;-78
2021/09/09 07:54:13;;;;;;;;;;;;;;;;;;5034622;28;19928;-79
2021/09/09 07:56:58;;;;;;;;;;;;;;;;;;5037797;28;19931;-79
2021/09/09 07:59:42;;;;;;;;;;;;;;;;;;5034102;28;19936;-82
2021/09/09 08:02:26;;;;;;;;;;;;;;;;;;5031108;28;19920;-82
2021/09/09 08:05:11;;;;;;;;;;;;;;;;;;5040431;28;19921;-82
2021/09/09 08:07:55;;;;;;;;;;;;;;;;;;5035104;28;19933;-82
2021/09/09 08:10:39;;;;;;;;;;;;;;;;;;5034282;28;19924;-81
2021/09/09 08:13:23;;;;;;;;;;;;;;;;;;5033909;28;19920;-82
2021/09/09 08:16:07;;;;;;;;;;;;;;;;;;5035370;28;19924;-81
2021/09/09 08:18:51;;;;;;;;;;;;;;;;;;5033307;28;19927;-84
2021/09/09 08:21:37;;;;;;;;;;;;;;;;;;5035698;28;19920;-84
2021/09/09 08:24:21;;;;;;;;;;;;;;;;;;5036381;28;19920;-83
2021/09/09 08:27:06;;;;;;;;;;;;;;;;;;5040095;28;19928;-83
2021/09/09 08:29:50;;;;;;;;;;;;;;;;;;5032296;28;19920;-83
2021/09/09 08:32:34;;;;;;;;;;;;;;;;;;5030305;28;19921;-83
2021/09/09 08:35:18;;;;;;;;;;;;;;;;;;5028011;28;19925;-83
2021/09/09 08:38:03;;;;;;;;;;;;;;;;;;5030109;28;19924;-83
2021/09/09 08:40:50;;;;;;;;;;;;;;;;;;5035989;28;19920;-85
2021/09/09 08:43:35;;;;;;;;;;;;;;;;;;5051862;28;20293;-84
2021/09/09 08:46:19;;;;;;;;;;;;;;;;;;5040310;28;19929;-84
2021/09/09 08:49:03;;;;;;;;;;;;;;;;;;5033860;28;20054;-83
2021/09/09 08:51:47;;;;;;;;;;;;;;;;;;5032906;28;19920;-83
2021/09/09 08:54:32;;;;;;;;;;;;;;;;;;5035764;28;19920;-82
2021/09/09 08:57:17;;;;;;;;;;;;;;;;;;5048516;28;20289;-82
2021/09/09 09:00:02;;;;;;;;;;;;;;;;;;5035351;28;19940;-81
2021/09/09 09:02:46;;;;;;;;;;;;;;;;;;5029815;28;19932;-83
2021/09/09 09:05:32;;;;;;;;;;;;;;;;;;5034187;28;19924;-83
2021/09/09 09:08:16;;;;;;;;;;;;;;;;;;5033027;28;19921;-83
2021/09/09 09:11:00;;;;;;;;;;;;;;;;;;5033266;28;20409;-83
2021/09/09 09:13:44;;;;;;;;;;;;;;;;;;5034730;28;19928;-84
2021/09/09 09:16:30;;;;;;;;;;;;;;;;;;5038196;28;19924;-83
2021/09/09 09:19:15;;;;;;;;;;;;;;;;;;5049385;28;19928;-84
2021/09/09 09:21:59;;;;;;;;;;;;;;;;;;5055345;28;19936;-85
2021/09/09 09:24:44;;;;;;;;;;;;;;;;;;5054425;28;19907;-85
2021/09/09 09:27:28;;;;;;;;;;;;;;;;;;5055221;28;19927;-85
2021/09/09 09:30:13;;;;;;;;;;;;;;;;;;5053797;28;19923;-85
2021/09/09 09:32:58;;;;;;;;;;;;;;;;;;5055412;28;19920;-85
2021/09/09 09:35:42;;;;;;;;;;;;;;;;;;5052913;28;19927;-86
2021/09/09 09:38:27;;;;;;;;;;;;;;;;;;5053710;28;19919;-83
2021/09/09 09:41:12;;;;;;;;;;;;;;;;;;5051067;28;19924;-84
2021/09/09 09:43:59;;;;;;;;;;;;;;;;;;5051588;28;19924;-84
2021/09/09 09:46:44;;;;;;;;;;;;;;;;;;5053329;28;19920;-85
2021/09/09 09:49:29;;;;;;;;;;;;;;;;;;5052804;28;19924;-84
2021/09/09 09:52:14;;;;;;;;;;;;;;;;;;5056683;28;19919;-84
2021/09/09 09:54:58;;;;;;;;;;;;;;;;;;5052724;28;19924;-84
2021/09/09 09:57:42;;;;;;;;;;;;;;;;;;5057369;28;19938;-83
2021/09/09 10:00:27;;;;;;;;;;;;;;;;;;5054075;28;19932;-85
2021/09/09 10:03:11;;;;;;;;;;;;;;;;;;5053899;28;19919;-85
2021/09/09 10:05:57;;;;;;;;;;;;;;;;;;5056867;28;20117;-84
2021/09/09 10:08:41;;;;;;;;;;;;;;;;;;5045247;28;20516;-83
2021/09/09 10:11:25;;;;;;;;;;;;;;;;;;5051268;28;19920;-84
2021/09/09 10:14:09;;;;;;;;;;;;;;;;;;5052577;28;19923;-84
2021/09/09 10:16:54;;;;;;;;;;;;;;;;;;5058203;28;19909;-83
2021/09/09 10:19:38;;;;;;;;;;;;;;;;;;5055429;28;19923;-84
2021/09/09 10:22:22;;;;;;;;;;;;;;;;;;5051599;28;19919;-84
2021/09/09 10:25:11;;;;;;;;;;;;;;;;;;5057029;28;19927;-84
2021/09/09 10:27:58;;;;;;;;;;;;;;;;;;5054251;28;19924;-85
2021/09/09 10:30:43;;;;;;;;;;;;;;;;;;5051404;28;19943;-85
2021/09/09 10:33:27;;;;;;;;;;;;;;;;;;5049485;28;20325;-82
2021/09/09 10:36:12;;;;;;;;;;;;;;;;;;5055879;28;19939;-83
2021/09/09 10:38:56;;;;;;;;;;;;;;;;;;5047063;28;19920;-83
2021/09/09 10:41:40;;;;;;;;;;;;;;;;;;5045205;28;20400;-84
2021/09/09 10:44:24;;;;;;;;;;;;;;;;;;5049007;28;19920;-83
2021/09/09 10:47:08;;;;;;;;;;;;;;;;;;5049034;28;20514;-83
2021/09/09 10:49:53;;;;;;;;;;;;;;;;;;5050719;28;19920;-84
2021/09/09 10:52:37;;;;;;;;;;;;;;;;;;5046321;28;19908;-83
2021/09/09 10:55:21;;;;;;;;;;;;;;;;;;5049121;28;19920;-82
2021/09/09 10:58:06;;;;;;;;;;;;;;;;;;5049992;28;20395;-83
2021/09/09 11:00:50;;;;;;;;;;;;;;;;;;5050222;28;19924;-83
2021/09/09 11:03:35;;;;;;;;;;;;;;;;;;5046987;28;19929;-83
2021/09/09 11:06:19;;;;;;;;;;;;;;;;;;5046731;28;19920;-83
2021/09/09 11:09:03;;;;;;;;;;;;;;;;;;5043169;28;19924;-83
2021/09/09 11:11:49;;;;;;;;;;;;;;;;;;5044880;28;20408;-83
2021/09/09 11:14:33;;;;;;;;;;;;;;;;;;5049925;28;19932;-83
2021/09/09 11:17:18;;;;;;;;;;;;;;;;;;5047623;28;20401;-82
2021/09/09 11:20:04;;;;;;;;;;;;;;;;;;5047962;28;20463;-82
2021/09/09 11:22:48;;;;;;;;;;;;;;;;;;5050456;28;20188;-84
2021/09/09 11:25:32;;;;;;;;;;;;;;;;;;5044784;28;19909;-83
2021/09/09 11:28:19;;;;;;;;;;;;;;;;;;5053265;28;19920;-83
2021/09/09 11:31:03;;;;;;;;;;;;;;;;;;5047947;28;19920;-84
2021/09/09 11:33:48;;;;;;;;;;;;;;;;;;5046598;28;19928;-83
2021/09/09 11:36:32;;;;;;;;;;;;;;;;;;5053188;28;19932;-83
2021/09/09 11:39:16;;;;;;;;;;;;;;;;;;5052113;28;19921;-82
2021/09/09 11:42:00;;;;;;;;;;;;;;;;;;5049438;28;19924;-82
2021/09/09 11:44:45;;;;;;;;;;;;;;;;;;5046336;28;20351;-83
2021/09/09 11:47:30;;;;;;;;;;;;;;;;;;5050567;28;19920;-82
2021/09/09 11:50:14;;;;;;;;;;;;;;;;;;5046801;28;20503;-84
2021/09/09 11:52:59;;;;;;;;;;;;;;;;;;5050071;28;19931;-83
2021/09/09 11:55:43;;;;;;;;;;;;;;;;;;5047687;28;19923;-84
2021/09/09 11:58:27;;;;;;;;;;;;;;;;;;5049837;28;19931;-83
2021/09/09 12:01:12;;;;;;;;;;;;;;;;;;5049656;28;19920;-84
2021/09/09 12:03:56;;;;;;;;;;;;;;;;;;5052585;28;19944;-83
2021/09/09 12:06:40;;;;;;;;;;;;;;;;;;5047953;28;19919;-84
2021/09/09 12:09:25;;;;;;;;;;;;;;;;;;5057878;28;19991;-84
2021/09/09 12:12:10;;;;;;;;;;;;;;;;;;5053738;28;19924;-84
2021/09/09 12:14:54;;;;;;;;;;;;;;;;;;5048522;28;19928;-83
2021/09/09 12:17:38;;;;;;;;;;;;;;;;;;5050044;28;19932;-84
2021/09/09 12:20:23;;;;;;;;;;;;;;;;;;5051297;28;19923;-84
2021/09/09 12:23:07;;;;;;;;;;;;;;;;;;5051174;28;19924;-86
2021/09/09 12:25:51;;;;;;;;;;;;;;;;;;5049355;28;19920;-84
2021/09/09 12:28:36;;;;;;;;;;;;;;;;;;5047480;28;20401;-84
2021/09/09 12:31:20;;;;;;;;;;;;;;;;;;5048129;28;19920;-84
2021/09/09 12:34:04;;;;;;;;;;;;;;;;;;5043594;28;19920;-84
2021/09/09 12:36:48;;;;;;;;;;;;;;;;;;5050592;28;20391;-83
2021/09/09 12:39:34;;;;;;;;;;;;;;;;;;5051302;28;19983;-84
2021/09/09 12:42:18;;;;;;;;;;;;;;;;;;5050856;28;19924;-84
2021/09/09 12:45:07;;;;;;;;;;;;;;;;;;5055972;28;19923;-83
2021/09/09 12:47:51;;;;;;;;;;;;;;;;;;5051163;28;19916;-83
2021/09/09 12:50:36;;;;;;;;;;;;;;;;;;5055641;28;20308;-83
2021/09/09 12:53:20;;;;;;;;;;;;;;;;;;5062168;28;19923;-84
2021/09/09 12:56:05;;;;;;;;;;;;;;;;;;5056870;28;20123;-84
2021/09/09 12:58:49;;;;;;;;;;;;;;;;;;5058396;28;19924;-83
2021/09/09 13:01:34;;;;;;;;;;;;;;;;;;5055816;28;19923;-84
2021/09/09 13:04:18;;;;;;;;;;;;;;;;;;5055732;28;19920;-84
2021/09/09 13:07:03;;;;;;;;;;;;;;;;;;5057245;28;19920;-83
2021/09/09 13:09:48;;;;;;;;;;;;;;;;;;5057216;28;19931;-84
2021/09/09 13:12:32;;;;;;;;;;;;;;;;;;5060949;28;19920;-84
2021/09/09 13:15:17;;;;;;;;;;;;;;;;;;5056773;28;19919;-83
2021/09/09 13:18:01;;;;;;;;;;;;;;;;;;5056278;28;20110;-84
2021/09/09 13:20:45;;;;;;;;;;;;;;;;;;5056953;28;19908;-84
2021/09/09 13:23:29;;;;;;;;;;;;;;;;;;5059181;28;20367;-84
2021/09/09 13:26:14;;;;;;;;;;;;;;;;;;5056006;28;19924;-83
2021/09/09 13:28:58;;;;;;;;;;;;;;;;;;5056718;28;19920;-84
2021/09/09 13:31:43;;;;;;;;;;;;;;;;;;5057689;28;19920;-84
2021/09/09 13:34:27;;;;;;;;;;;;;;;;;;5062971;28;19920;-84
2021/09/09 13:37:11;;;;;;;;;;;;;;;;;;5060582;28;19936;-84
2021/09/09 13:39:56;;;;;;;;;;;;;;;;;;5057949;28;19924;-83
2021/09/09 13:42:40;;;;;;;;;;;;;;;;;;5056384;28;19908;-84
2021/09/09 13:45:24;;;;;;;;;;;;;;;;;;5060460;28;19920;-84
2021/09/09 13:48:09;;;;;;;;;;;;;;;;;;5058502;28;20407;-84
2021/09/09 13:50:53;;;;;;;;;;;;;;;;;;5056710;28;19903;-83
2021/09/09 13:53:37;;;;;;;;;;;;;;;;;;5055380;28;20400;-84
2021/09/09 13:56:22;;;;;;;;;;;;;;;;;;5057706;28;19991;-84
2021/09/09 13:59:08;;;;;;;;;;;;;;;;;;5062830;28;19919;-84
2021/09/09 14:01:53;;;;;;;;;;;;;;;;;;5054330;28;19904;-83
2021/09/09 14:04:37;;;;;;;;;;;;;;;;;;5056245;28;19904;-83
2021/09/09 14:07:23;;;;;;;;;;;;;;;;;;5058171;28;19924;-84
2021/09/09 14:10:08;;;;;;;;;;;;;;;;;;5054673;28;19931;-85
2021/09/09 14:12:52;;;;;;;;;;;;;;;;;;5056544;28;19907;-84
2021/09/09 14:15:37;;;;;;;;;;;;;;;;;;5053208;28;19919;-85
2021/09/09 14:18:21;;;;;;;;;;;;;;;;;;5053005;28;20407;-85
2021/09/09 14:21:05;;;;;;;;;;;;;;;;;;5050003;28;19919;-84
2021/09/09 14:23:51;;;;;;;;;;;;;;;;;;5052422;28;19908;-84
2021/09/09 14:26:35;;;;;;;;;;;;;;;;;;5052518;28;19920;-84
2021/09/09 14:29:19;;;;;;;;;;;;;;;;;;5056671;28;19924;-85
2021/09/09 14:32:04;;;;;;;;;;;;;;;;;;5052414;28;19920;-84
2021/09/09 14:34:48;;;;;;;;;;;;;;;;;;5058372;28;19928;-84
2021/09/09 14:37:32;;;;;;;;;;;;;;;;;;5054910;28;20446;-85
2021/09/09 14:40:17;;;;;;;;;;;;;;;;;;5054683;28;19919;-84
2021/09/09 14:43:02;;;;;;;;;;;;;;;;;;5058632;28;19919;-84
2021/09/09 14:45:46;;;;;;;;;;;;;;;;;;5053617;28;19920;-84
2021/09/09 14:48:31;;;;;;;;;;;;;;;;;;5054858;28;19923;-84
2021/09/09 14:51:15;;;;;;;;;;;;;;;;;;5051721;28;19920;-84
2021/09/09 14:53:59;;;;;;;;;;;;;;;;;;5055434;28;19923;-85
2021/09/09 14:56:44;;;;;;;;;;;;;;;;;;5054903;28;19923;-84
2021/09/09 14:59:28;;;;;;;;;;;;;;;;;;5053543;28;19919;-84
2021/09/09 15:02:15;;;;;;;;;;;;;;;;;;5052126;28;20052;-84
2021/09/09 15:04:59;;;;;;;;;;;;;;;;;;5052328;28;19924;-84
2021/09/09 15:07:43;;;;;;;;;;;;;;;;;;5053034;28;19923;-83
2021/09/09 15:10:28;;;;;;;;;;;;;;;;;;5052187;28;19923;-83
2021/09/09 15:13:16;;;;;;;;;;;;;;;;;;5051032;28;19923;-84
2021/09/09 15:16:00;;;;;;;;;;;;;;;;;;5057957;28;19919;-84
2021/09/09 15:18:45;;;;;;;;;;;;;;;;;;5051911;28;19939;-84
2021/09/09 15:21:29;;;;;;;;;;;;;;;;;;5051866;28;19927;-83
2021/09/09 15:24:13;;;;;;;;;;;;;;;;;;5052801;28;19936;-83
2021/09/09 15:26:58;;;;;;;;;;;;;;;;;;5051258;28;19924;-83
2021/09/09 15:29:43;;;;;;;;;;;;;;;;;;5056315;28;19919;-85
2021/09/09 15:32:30;;;;;;;;;;;;;;;;;;5052400;28;19935;-86
2021/09/09 15:35:16;;;;;;;;;;;;;;;;;;5047929;28;19916;-86
2021/09/09 15:38:01;;;;;;;;;;;;;;;;;;5062535;28;19923;-85
2021/09/09 15:40:45;;;;;;;;;;;;;;;;;;5053041;28;19921;-86
2021/09/09 15:43:29;;;;;;;;;;;;;;;;;;5058452;28;20004;-86
2021/09/09 15:46:13;;;;;;;;;;;;;;;;;;5056825;28;19923;-86
2021/09/09 15:48:58;;;;;;;;;;;;;;;;;;5054463;28;19920;-85
2021/09/09 15:51:42;;;;;;;;;;;;;;;;;;5050809;28;19924;-86
2021/09/09 15:54:27;;;;;;;;;;;;;;;;;;5051306;28;19906;-87
2021/09/09 15:57:11;;;;;;;;;;;;;;;;;;5051720;28;19923;-85
2021/09/09 15:59:56;;;;;;;;;;;;;;;;;;5050634;28;19919;-86
2021/09/09 16:02:41;;;;;;;;;;;;;;;;;;5051466;28;19920;-86
2021/09/09 16:05:26;;;;;;;;;;;;;;;;;;5052332;28;19924;-86
2021/09/09 16:08:11;;;;;;;;;;;;;;;;;;5051691;28;19923;-86
2021/09/09 16:10:55;;;;;;;;;;;;;;;;;;5052484;28;20400;-85
2021/09/09 16:13:39;;;;;;;;;;;;;;;;;;5052088;28;19927;-86
2021/09/09 16:16:24;;;;;;;;;;;;;;;;;;5034462;28;19920;-85
2021/09/09 16:19:08;;;;;;;;;;;;;;;;;;5031609;28;19919;-85
2021/09/09 16:21:52;;;;;;;;;;;;;;;;;;5043806;28;20332;-85
2021/09/09 16:24:37;;;;;;;;;;;;;;;;;;5051923;28;19920;-85
2021/09/09 16:27:21;;;;;;;;;;;;;;;;;;5045877;28;19923;-84
2021/09/09 16:30:05;;;;;;;;;;;;;;;;;;5058683;28;19919;-84
2021/09/09 16:32:49;;;;;;;;;;;;;;;;;;5047381;28;20616;-84
2021/09/09 16:35:34;;;;;;;;;;;;;;;;;;5053535;28;19924;-85
2021/09/09 16:38:18;;;;;;;;;;;;;;;;;;5049469;28;19924;-85
2021/09/09 16:41:02;;;;;;;;;;;;;;;;;;5048180;28;19919;-86
2021/09/09 16:43:47;;;;;;;;;;;;;;;;;;5042205;28;19924;-86
2021/09/09 16:46:31;;;;;;;;;;;;;;;;;;5043969;28;20304;-85
2021/09/09 16:49:16;;;;;;;;;;;;;;;;;;5051711;28;19904;-85
2021/09/09 16:52:00;;;;;;;;;;;;;;;;;;5055435;28;19924;-85
2021/09/09 16:54:44;;;;;;;;;;;;;;;;;;5052271;28;19923;-85
2021/09/09 16:57:28;;;;;;;;;;;;;;;;;;5049723;28;19999;-85
2021/09/09 17:00:15;;;;;;;;;;;;;;;;;;5053222;28;19920;-85
2021/09/09 17:02:59;;;;;;;;;;;;;;;;;;5049781;28;19928;-85
2021/09/09 17:05:45;;;;;;;;;;;;;;;;;;5049384;28;19908;-86
2021/09/09 17:08:29;;;;;;;;;;;;;;;;;;5049721;28;19931;-85
2021/09/09 17:11:13;;;;;;;;;;;;;;;;;;5049446;28;19920;-84
2021/09/09 17:13:58;;;;;;;;;;;;;;;;;;5052067;28;19921;-84
2021/09/09 17:16:42;;;;;;;;;;;;;;;;;;5065307;28;19920;-86
2021/09/09 17:19:29;;;;;;;;;;;;;;;;;;5048061;28;19923;-87
2021/09/09 17:22:16;;;;;;;;;;;;;;;;;;5047818;28;19916;-87
2021/09/09 17:25:00;;;;;;;;;;;;;;;;;;5054682;28;19923;-87
2021/09/09 17:27:45;;;;;;;;;;;;;;;;;;5055574;28;19924;-86
2021/09/09 17:30:29;;;;;;;;;;;;;;;;;;5051013;28;20100;-86
2021/09/09 17:33:13;;;;;;;;;;;;;;;;;;5053382;28;19941;-87
2021/09/09 17:35:59;;;;;;;;;;;;;;;;;;5054276;28;19907;-87
2021/09/09 17:38:47;;;;;;;;;;;;;;;;;;5055308;28;19923;-87
2021/09/09 17:41:31;;;;;;;;;;;;;;;;;;5050515;28;19923;-87
2021/09/09 17:44:15;;;;;;;;;;;;;;;;;;5048578;28;19919;-86
2021/09/09 17:46:59;;;;;;;;;;;;;;;;;;5053134;28;20415;-85
2021/09/09 17:49:44;;;;;;;;;;;;;;;;;;5053982;28;19923;-85
2021/09/09 17:52:28;;;;;;;;;;;;;;;;;;5052199;28;19920;-85
2021/09/09 17:55:14;;;;;;;;;;;;;;;;;;5054385;28;19920;-85
2021/09/09 17:57:59;;;;;;;;;;;;;;;;;;5050147;28;19928;-86
2021/09/09 18:00:44;;;;;;;;;;;;;;;;;;5052893;28;19920;-86
2021/09/09 18:03:28;;;;;;;;;;;;;;;;;;5053224;28;19921;-85
2021/09/09 18:06:13;;;;;;;;;;;;;;;;;;5048015;28;19920;-86
2021/09/09 18:08:59;;;;;;;;;;;;;;;;;;5047240;28;19916;-87
2021/09/09 18:11:43;;;;;;;;;;;;;;;;;;5058450;28;19971;-85
2021/09/09 18:14:29;;;;;;;;;;;;;;;;;;5040652;28;19921;-87
2021/09/09 18:17:14;;;;;;;;;;;;;;;;;;5032896;28;19924;-86
2021/09/09 18:19:58;;;;;;;;;;;;;;;;;;5034859;28;20298;-85
2021/09/09 18:22:42;;;;;;;;;;;;;;;;;;5032767;28;19921;-84
2021/09/09 18:25:26;;;;;;;;;;;;;;;;;;5042224;28;19920;-84
2021/09/09 18:28:11;;;;;;;;;;;;;;;;;;5034194;28;19921;-84
2021/09/09 18:30:55;;;;;;;;;;;;;;;;;;5032357;28;19932;-84
2021/09/09 18:33:39;;;;;;;;;;;;;;;;;;5034597;28;19920;-84
2021/09/09 18:36:23;;;;;;;;;;;;;;;;;;5028252;28;19920;-84
2021/09/09 18:39:07;;;;;;;;;;;;;;;;;;5039466;28;20403;-86
2021/09/09 18:41:52;;;;;;;;;;;;;;;;;;5029152;28;19925;-84
2021/09/09 18:44:36;;;;;;;;;;;;;;;;;;5034893;28;19989;-83